Time;durP1;ratioP1;P1;durP2;ratioP2;P2;SDS_P1;SDS_P2;PMS_P1;PMS_P2;Temp;Humidity;BMP_temperature;BMP_pressure;BME280_temperature;BME280_humidity;BME280_pressure;Samples;Min_cycle;Max_cycle;Signal;HPM_P1;HPM_P2
2023/03/23 00:02:09;;;;;;;23.30;14.55;;;;;;;;;;4881782;29;20455;-95
2023/03/23 00:04:36;;;;;;;30.75;17.00;;;;;;;;;;4865154;29;20029;-95
2023/03/23 00:07:03;;;;;;;32.33;18.90;;;;;;;;;;4864841;29;20040;-95
2023/03/23 00:09:29;;;;;;;27.58;17.52;;;;;;;;;;4866309;29;20131;-96
2023/03/23 00:11:56;;;;;;;29.40;17.05;;;;;;;;;;4866966;29;20029;-95
2023/03/23 00:14:24;;;;;;;38.20;22.17;;;;;;;;;;4866102;29;20439;-95
2023/03/23 00:16:51;;;;;;;37.28;23.25;;;;;;;;;;4864900;29;20029;-95
2023/03/23 00:19:19;;;;;;;33.75;21.27;;;;;;;;;;4863521;29;20029;-94
2023/03/23 00:21:45;;;;;;;37.63;23.60;;;;;;;;;;4864354;29;20029;-95
2023/03/23 00:24:13;;;;;;;42.05;25.42;;;;;;;;;;4864058;29;20056;-95
2023/03/23 00:26:40;;;;;;;40.00;24.35;;;;;;;;;;4865063;29;20410;-96
2023/03/23 00:29:07;;;;;;;41.45;24.67;;;;;;;;;;4864136;29;20032;-96
2023/03/23 00:31:34;;;;;;;41.03;23.95;;;;;;;;;;4864515;29;20033;-94
2023/03/23 00:34:03;;;;;;;34.38;22.15;;;;;;;;;;4866523;29;20029;-94
2023/03/23 00:36:30;;;;;;;35.70;22.60;;;;;;;;;;4881532;29;20033;-94
2023/03/23 00:38:59;;;;;;;81.55;40.65;;;;;;;;;;4884487;29;20025;-94
2023/03/23 00:41:28;;;;;;;52.08;32.92;;;;;;;;;;4887891;29;20107;-96
2023/03/23 00:44:00;;;;;;;50.70;31.30;;;;;;;;;;4867670;29;20101;-95
2023/03/23 00:46:27;;;;;;;35.22;22.77;;;;;;;;;;4864577;29;20080;-96
2023/03/23 00:48:54;;;;;;;33.75;19.92;;;;;;;;;;4864245;29;20033;-96
2023/03/23 00:51:20;;;;;;;35.63;23.70;;;;;;;;;;4865066;29;20107;-96
2023/03/23 00:53:47;;;;;;;32.85;19.77;;;;;;;;;;4864430;29;20029;-96
2023/03/23 00:56:13;;;;;;;28.85;18.08;;;;;;;;;;4865207;29;20036;-96
2023/03/23 00:58:40;;;;;;;31.80;19.08;;;;;;;;;;4864404;29;20498;-96
2023/03/23 01:01:06;;;;;;;35.03;22.85;;;;;;;;;;4865241;29;20032;-95
2023/03/23 01:03:33;;;;;;;35.58;21.70;;;;;;;;;;4864651;29;20037;-96
2023/03/23 01:06:05;;;;;;;33.15;21.23;;;;;;;;;;4864598;29;20029;-96
2023/03/23 01:08:31;;;;;;;31.10;20.20;;;;;;;;;;4863595;29;20348;-96
2023/03/23 01:11:07;;;;;;;35.63;21.63;;;;;;;;;;4863742;29;20506;-95
2023/03/23 01:13:33;;;;;;;36.17;22.35;;;;;;;;;;4863556;29;20033;-95
2023/03/23 01:15:59;;;;;;;33.75;20.75;;;;;;;;;;4863689;29;20029;-94
2023/03/23 01:18:25;;;;;;;29.30;18.40;;;;;;;;;;4863743;29;20035;-95
2023/03/23 01:20:51;;;;;;;37.00;22.27;;;;;;;;;;4863411;29;20040;-96
2023/03/23 01:23:17;;;;;;;35.17;21.88;;;;;;;;;;4871633;29;20083;-95
2023/03/23 01:25:45;;;;;;;30.08;18.80;;;;;;;;;;4879244;29;20056;-95
2023/03/23 01:28:11;;;;;;;31.70;19.35;;;;;;;;;;4882559;29;20084;-96
2023/03/23 01:30:37;;;;;;;33.00;20.95;;;;;;;;;;4882568;29;20039;-96
2023/03/23 01:33:04;;;;;;;31.15;19.55;;;;;;;;;;4882030;29;20140;-95
2023/03/23 01:35:30;;;;;;;30.98;19.02;;;;;;;;;;4882301;29;20033;-96
2023/03/23 01:37:56;;;;;;;32.45;20.45;;;;;;;;;;4881840;29;20474;-96
2023/03/23 01:40:22;;;;;;;38.47;21.42;;;;;;;;;;4882260;29;20024;-96
2023/03/23 01:42:49;;;;;;;37.85;21.38;;;;;;;;;;4881667;29;20050;-95
2023/03/23 01:45:22;;;;;;;27.73;18.02;;;;;;;;;;4881613;29;20028;-95
2023/03/23 01:47:50;;;;;;;30.63;18.60;;;;;;;;;;4881261;29;20044;-95
2023/03/23 01:50:17;;;;;;;35.20;19.75;;;;;;;;;;4880979;29;20397;-95
2023/03/23 01:52:44;;;;;;;35.40;20.95;;;;;;;;;;4880732;29;20039;-96
2023/03/23 01:55:10;;;;;;;32.10;19.75;;;;;;;;;;4881323;29;20033;-96
2023/03/23 01:57:36;;;;;;;52.13;24.30;;;;;;;;;;4881723;29;20176;-96
2023/03/23 02:00:10;;;;;;;30.58;18.42;;;;;;;;;;4881785;29;20045;-95
2023/03/23 02:02:38;;;;;;;37.10;21.40;;;;;;;;;;4881879;29;20036;-96
2023/03/23 02:05:09;;;;;;;37.20;21.75;;;;;;;;;;4881792;29;20033;-96
2023/03/23 02:07:35;;;;;;;43.47;22.67;;;;;;;;;;4882752;29;20037;-96
2023/03/23 02:10:01;;;;;;;34.42;21.02;;;;;;;;;;4881341;29;20024;-96
2023/03/23 02:12:27;;;;;;;33.97;21.05;;;;;;;;;;4881250;29;20040;-96
2023/03/23 02:14:54;;;;;;;39.42;21.88;;;;;;;;;;4883326;29;20028;-96
2023/03/23 02:17:26;;;;;;;37.90;21.70;;;;;;;;;;4881383;29;20033;-96
2023/03/23 02:19:52;;;;;;;37.47;20.27;;;;;;;;;;4889599;29;20031;-93
2023/03/23 02:22:35;;;;;;;41.13;23.45;;;;;;;;;;4891052;29;20053;-94
2023/03/23 02:25:22;;;;;;;39.90;22.42;;;;;;;;;;4880680;29;20036;-96
2023/03/23 02:28:05;;;;;;;34.22;19.83;;;;;;;;;;4879777;29;20120;-96
2023/03/23 02:30:50;;;;;;;34.80;19.65;;;;;;;;;;4879994;29;20036;-95
2023/03/23 02:33:28;;;;;;;35.63;20.85;;;;;;;;;;4880186;29;20036;-96
2023/03/23 02:36:00;;;;;;;34.50;19.35;;;;;;;;;;4880038;29;20028;-96
2023/03/23 02:38:35;;;;;;;34.38;20.27;;;;;;;;;;4880555;29;20386;-96
2023/03/23 02:44:05;;;;;;;40.65;22.27;;;;;;;;;;4896487;29;20051;-96
2023/03/23 02:46:32;;;;;;;38.60;21.58;;;;;;;;;;4880110;29;20478;-95
2023/03/23 02:49:00;;;;;;;37.65;21.77;;;;;;;;;;4879571;29;20032;-96
2023/03/23 02:51:26;;;;;;;38.40;20.58;;;;;;;;;;4879809;29;20038;-95
2023/03/23 02:53:54;;;;;;;37.97;21.98;;;;;;;;;;4879780;29;20061;-95
2023/03/23 02:56:22;;;;;;;36.00;21.40;;;;;;;;;;4879739;29;20039;-96
2023/03/23 02:58:48;;;;;;;36.90;21.58;;;;;;;;;;4879769;29;20028;-95
2023/03/23 03:01:28;;;;;;;31.77;19.40;;;;;;;;;;4879822;29;20175;-96
2023/03/23 03:03:56;;;;;;;31.60;19.90;;;;;;;;;;4879895;29;20040;-96
2023/03/23 03:06:29;;;;;;;38.58;22.40;;;;;;;;;;4882739;29;20025;-96
2023/03/23 03:09:02;;;;;;;40.70;22.30;;;;;;;;;;4882942;29;20028;-96
2023/03/23 03:11:30;;;;;;;36.45;19.85;;;;;;;;;;4882833;29;20487;-94
2023/03/23 03:13:59;;;;;;;37.67;21.63;;;;;;;;;;4882646;29;20064;-93
2023/03/23 03:16:29;;;;;;;38.80;21.40;;;;;;;;;;4883036;29;20088;-95
2023/03/23 03:19:18;;;;;;;38.13;20.48;;;;;;;;;;4882778;29;20039;-96
2023/03/23 03:21:46;;;;;;;35.10;19.35;;;;;;;;;;4882991;29;20039;-95
2023/03/23 03:24:14;;;;;;;37.80;20.77;;;;;;;;;;4837384;29;1361315;-95
2023/03/23 03:26:45;;;;;;;41.13;22.30;;;;;;;;;;4883681;29;20124;-96
2023/03/23 03:29:11;;;;;;;41.70;22.75;;;;;;;;;;4883575;29;20092;-96
2023/03/23 03:31:40;;;;;;;36.88;22.00;;;;;;;;;;4901340;29;20032;-93
2023/03/23 03:34:08;;;;;;;40.35;23.67;;;;;;;;;;4896830;29;20386;-96
2023/03/23 03:36:35;;;;;;;39.85;22.80;;;;;;;;;;4887124;29;20041;-96
2023/03/23 03:39:07;;;;;;;43.53;23.40;;;;;;;;;;4884554;29;20056;-95
2023/03/23 03:41:34;;;;;;;42.75;23.88;;;;;;;;;;4884151;29;20494;-96
2023/03/23 03:44:00;;;;;;;40.92;23.98;;;;;;;;;;4884031;29;20052;-95
2023/03/23 03:46:29;;;;;;;39.72;22.35;;;;;;;;;;4883406;29;20029;-96
2023/03/23 03:48:58;;;;;;;37.35;20.48;;;;;;;;;;4883509;29;20028;-94
2023/03/23 03:51:25;;;;;;;31.23;18.08;;;;;;;;;;4883711;29;20502;-95
2023/03/23 03:53:52;;;;;;;27.45;17.73;;;;;;;;;;4883658;29;20029;-95
2023/03/23 03:56:19;;;;;;;30.40;19.63;;;;;;;;;;4883228;29;20090;-95
2023/03/23 03:58:48;;;;;;;31.48;19.67;;;;;;;;;;4883147;29;20025;-94
2023/03/23 04:01:15;;;;;;;34.88;20.67;;;;;;;;;;4883505;29;20140;-96
2023/03/23 04:03:41;;;;;;;36.83;21.23;;;;;;;;;;4883798;29;20139;-94
2023/03/23 04:06:12;;;;;;;33.72;20.80;;;;;;;;;;4897925;29;20025;-95
2023/03/23 04:08:39;;;;;;;35.58;21.70;;;;;;;;;;4883393;29;20032;-95
2023/03/23 04:11:05;;;;;;;40.05;22.88;;;;;;;;;;4882920;29;20029;-94
2023/03/23 04:13:32;;;;;;;36.22;21.35;;;;;;;;;;4882630;29;20479;-96
2023/03/23 04:15:58;;;;;;;39.25;22.08;;;;;;;;;;4881820;29;20040;-96
2023/03/23 04:18:25;;;;;;;32.03;18.63;;;;;;;;;;4883020;29;20430;-95
2023/03/23 04:20:51;;;;;;;34.25;20.75;;;;;;;;;;4882371;29;20032;-95
2023/03/23 04:23:22;;;;;;;40.45;21.38;;;;;;;;;;4882894;29;20087;-95
2023/03/23 04:25:49;;;;;;;34.42;21.95;;;;;;;;;;4882555;29;20477;-96
2023/03/23 04:28:18;;;;;;;33.50;19.95;;;;;;;;;;4882318;29;20029;-95
2023/03/23 04:30:45;;;;;;;33.83;19.77;;;;;;;;;;4882760;29;20372;-96
2023/03/23 04:33:15;;;;;;;31.23;19.20;;;;;;;;;;4882445;29;20033;-95
2023/03/23 04:35:45;;;;;;;35.83;20.88;;;;;;;;;;4882407;29;20475;-96
2023/03/23 04:38:12;;;;;;;35.80;18.75;;;;;;;;;;4882783;29;20033;-96
2023/03/23 04:40:39;;;;;;;31.70;19.80;;;;;;;;;;4882456;29;20036;-96
2023/03/23 04:43:05;;;;;;;36.20;20.00;;;;;;;;;;4882084;29;20128;-94
2023/03/23 04:45:32;;;;;;;31.20;17.65;;;;;;;;;;4882230;29;20526;-96
2023/03/23 04:47:58;;;;;;;35.40;18.92;;;;;;;;;;4881795;29;20087;-93
2023/03/23 04:50:27;;;;;;;34.22;19.45;;;;;;;;;;4882155;29;20490;-95
2023/03/23 04:52:56;;;;;;;30.25;19.08;;;;;;;;;;4881987;29;20123;-96
2023/03/23 04:55:22;;;;;;;30.80;18.38;;;;;;;;;;4882188;29;20035;-96
2023/03/23 04:57:49;;;;;;;35.17;20.00;;;;;;;;;;4881679;29;20077;-95
2023/03/23 05:00:16;;;;;;;33.13;19.25;;;;;;;;;;4881807;29;20029;-94
2023/03/23 05:02:43;;;;;;;32.38;19.25;;;;;;;;;;4881998;29;20040;-95
2023/03/23 05:05:11;;;;;;;31.48;18.77;;;;;;;;;;4881767;29;20024;-96
2023/03/23 05:07:41;;;;;;;29.95;18.20;;;;;;;;;;4881902;29;20025;-96
2023/03/23 05:10:08;;;;;;;29.40;19.13;;;;;;;;;;4880251;29;20037;-96
2023/03/23 05:12:34;;;;;;;31.42;18.95;;;;;;;;;;4881788;29;20093;-95
2023/03/23 05:15:01;;;;;;;33.30;19.65;;;;;;;;;;4881748;29;20029;-96
2023/03/23 05:17:27;;;;;;;28.77;18.15;;;;;;;;;;4881904;29;20080;-94
2023/03/23 05:22:58;;;;;;;25.60;15.35;;;;;;;;;;4891428;29;20407;-94
2023/03/23 05:25:24;;;;;;;25.05;16.08;;;;;;;;;;4863344;29;20471;-96
2023/03/23 05:27:52;;;;;;;27.45;15.80;;;;;;;;;;4862650;29;20511;-96
2023/03/23 05:30:18;;;;;;;24.23;14.73;;;;;;;;;;4863236;29;20025;-95
2023/03/23 05:32:45;;;;;;;25.17;15.35;;;;;;;;;;4863066;29;20414;-96
2023/03/23 05:35:12;;;;;;;22.20;13.90;;;;;;;;;;4862873;29;20029;-96
2023/03/23 05:37:38;;;;;;;22.02;13.52;;;;;;;;;;4862751;29;20029;-94
2023/03/23 05:40:05;;;;;;;21.00;13.32;;;;;;;;;;4862593;29;20036;-96
2023/03/23 05:42:32;;;;;;;21.25;13.27;;;;;;;;;;4863090;29;20036;-96
2023/03/23 05:45:00;;;;;;;18.15;12.88;;;;;;;;;;4863065;29;20439;-96
2023/03/23 05:47:26;;;;;;;23.02;13.10;;;;;;;;;;4863433;29;20029;-96
2023/03/23 05:49:53;;;;;;;24.42;14.02;;;;;;;;;;4868290;29;20092;-91
2023/03/23 05:52:20;;;;;;;17.73;12.00;;;;;;;;;;4870418;29;20471;-93
2023/03/23 05:54:46;;;;;;;17.52;12.77;;;;;;;;;;4862421;29;20025;-95
2023/03/23 05:57:12;;;;;;;22.90;13.02;;;;;;;;;;4862848;29;20025;-94
2023/03/23 05:59:38;;;;;;;19.50;13.52;;;;;;;;;;4862680;29;20032;-95
2023/03/23 06:02:05;;;;;;;21.23;13.27;;;;;;;;;;4862264;29;20033;-96
2023/03/23 06:04:33;;;;;;;18.10;13.30;;;;;;;;;;4862322;29;20059;-96
2023/03/23 06:07:02;;;;;;;16.77;12.07;;;;;;;;;;4862628;29;20478;-95
2023/03/23 06:12:32;;;;;;;25.08;11.93;;;;;;;;;;4891801;29;20036;-94
2023/03/23 06:14:58;;;;;;;19.77;11.98;;;;;;;;;;4882233;29;20390;-94
2023/03/23 06:17:25;;;;;;;16.80;11.23;;;;;;;;;;4882770;29;20418;-94
2023/03/23 06:19:51;;;;;;;15.75;11.77;;;;;;;;;;4882681;29;20029;-94
2023/03/23 06:22:17;;;;;;;15.23;11.85;;;;;;;;;;4895961;29;20064;-92
2023/03/23 06:24:44;;;;;;;14.07;11.35;;;;;;;;;;4892474;29;20032;-93
2023/03/23 06:27:10;;;;;;;15.35;10.15;;;;;;;;;;4882979;29;20419;-94
2023/03/23 06:29:37;;;;;;;15.88;10.63;;;;;;;;;;4883799;29;20029;-94
2023/03/23 06:32:04;;;;;;;16.73;10.30;;;;;;;;;;4883481;29;20024;-94
2023/03/23 06:34:32;;;;;;;12.57;9.88;;;;;;;;;;4882220;29;20123;-94
2023/03/23 06:36:58;;;;;;;15.10;11.02;;;;;;;;;;4881122;29;20119;-94
2023/03/23 06:39:25;;;;;;;17.23;12.25;;;;;;;;;;4880453;29;20024;-92
2023/03/23 06:41:51;;;;;;;14.52;11.20;;;;;;;;;;4882004;29;20028;-95
2023/03/23 06:44:18;;;;;;;12.82;9.70;;;;;;;;;;4882440;29;20037;-94
2023/03/23 06:46:44;;;;;;;11.60;9.05;;;;;;;;;;4882294;29;20391;-93
2023/03/23 06:49:10;;;;;;;12.70;8.82;;;;;;;;;;4882034;29;20120;-94
2023/03/23 06:51:37;;;;;;;11.70;9.05;;;;;;;;;;4870178;29;20033;-93
2023/03/23 06:54:03;;;;;;;15.43;9.85;;;;;;;;;;4863856;29;20034;-94
2023/03/23 06:56:30;;;;;;;14.32;9.93;;;;;;;;;;4863855;29;20473;-94
2023/03/23 06:58:56;;;;;;;14.20;10.07;;;;;;;;;;4864158;29;20475;-95
2023/03/23 07:01:22;;;;;;;14.45;10.70;;;;;;;;;;4874440;29;20036;-94
2023/03/23 07:04:11;;;;;;;12.93;9.18;;;;;;;;;;4884085;29;20051;-96
2023/03/23 07:07:06;;;;;;;13.48;10.48;;;;;;;;;;4878346;29;20629;-91
2023/03/23 07:09:34;;;;;;;13.68;8.68;;;;;;;;;;4882779;29;20040;-94
2023/03/23 07:12:18;;;;;;;13.93;9.15;;;;;;;;;;4879365;29;20644;-92
2023/03/23 07:14:44;;;;;;;9.75;8.57;;;;;;;;;;4878433;29;20033;-91
2023/03/23 07:17:11;;;;;;;9.65;8.23;;;;;;;;;;4878617;29;20522;-94
2023/03/23 07:19:37;;;;;;;12.55;9.45;;;;;;;;;;4879389;29;20052;-95
2023/03/23 07:22:05;;;;;;;13.02;9.18;;;;;;;;;;4878754;29;20128;-95
2023/03/23 07:24:37;;;;;;;11.32;9.00;;;;;;;;;;4879098;29;20068;-94
2023/03/23 07:27:03;;;;;;;11.30;9.43;;;;;;;;;;4878594;29;20129;-94
2023/03/23 07:29:30;;;;;;;11.45;9.50;;;;;;;;;;4878093;29;20025;-93
2023/03/23 07:31:57;;;;;;;15.65;10.85;;;;;;;;;;4863738;29;20048;-93
2023/03/23 07:34:23;;;;;;;14.10;11.02;;;;;;;;;;4877708;29;20035;-93
2023/03/23 07:36:50;;;;;;;18.35;13.45;;;;;;;;;;4890250;29;20048;-92
2023/03/23 07:39:16;;;;;;;17.38;11.07;;;;;;;;;;4884375;29;20020;-94
2023/03/23 07:41:42;;;;;;;13.27;9.80;;;;;;;;;;4882200;29;20029;-94
2023/03/23 07:44:08;;;;;;;11.57;8.75;;;;;;;;;;4882595;29;20048;-96
2023/03/23 07:46:35;;;;;;;11.30;8.90;;;;;;;;;;4882197;29;20029;-94
2023/03/23 07:49:05;;;;;;;12.23;8.73;;;;;;;;;;4882520;29;20032;-94
2023/03/23 07:51:32;;;;;;;17.13;9.57;;;;;;;;;;4883545;29;20076;-94
2023/03/23 07:53:58;;;;;;;14.95;9.68;;;;;;;;;;4884763;29;20043;-95
2023/03/23 07:56:45;;;;;;;;;;;;;;;;;;;;;
2023/03/23 07:59:33;;;;;;;17.48;12.27;;;;;;;;;;4864379;29;20100;-94
2023/03/23 08:07:54;;;;;;;11.75;8.80;;;;;;;;;;5807860;23;20058;-91
2023/03/23 08:10:21;;;;;;;12.02;10.18;;;;;;;;;;4863488;29;20033;-91
2023/03/23 08:13:10;;;;;;;12.25;10.90;;;;;;;;;;4867484;29;20045;-96
2023/03/23 08:15:37;;;;;;;13.60;11.38;;;;;;;;;;4873221;29;20383;-93
2023/03/23 08:18:06;;;;;;;12.07;9.57;;;;;;;;;;4866536;29;20021;-94
2023/03/23 08:20:32;;;;;;;11.65;9.82;;;;;;;;;;4866218;29;20120;-93
2023/03/23 08:23:01;;;;;;;11.98;9.25;;;;;;;;;;4866000;29;20045;-93
2023/03/23 08:25:27;;;;;;;15.63;9.85;;;;;;;;;;4866302;29;20044;-94
2023/03/23 08:27:58;;;;;;;15.23;10.63;;;;;;;;;;4884422;29;20025;-93
2023/03/23 08:30:29;;;;;;;13.02;10.77;;;;;;;;;;4851831;29;20097;-93
2023/03/23 08:32:56;;;;;;;14.85;11.07;;;;;;;;;;4866824;29;20025;-94
2023/03/23 08:35:23;;;;;;;13.23;9.38;;;;;;;;;;4866165;29;20375;-93
2023/03/23 08:37:54;;;;;;;10.73;9.43;;;;;;;;;;4866184;29;20029;-93
2023/03/23 08:40:28;;;;;;;11.65;9.52;;;;;;;;;;4867527;29;20705;-94
2023/03/23 08:43:04;;;;;;;16.58;9.80;;;;;;;;;;4851384;29;20822;-95
2023/03/23 08:48:40;;;;;;;14.57;9.95;;;;;;;;;;4830952;29;20034;-95
2023/03/23 08:51:06;;;;;;;16.23;9.38;;;;;;;;;;4864239;29;20036;-95
2023/03/23 08:53:33;;;;;;;13.43;8.48;;;;;;;;;;4848899;29;20241;-93
2023/03/23 08:56:07;;;;;;;13.82;8.40;;;;;;;;;;4847899;29;20105;-95
2023/03/23 08:58:34;;;;;;;10.35;8.43;;;;;;;;;;4847114;29;20535;-94
2023/03/23 09:01:00;;;;;;;10.70;8.85;;;;;;;;;;4846833;29;20030;-94
2023/03/23 09:03:40;;;;;;;11.55;8.20;;;;;;;;;;4831733;29;20043;-93
2023/03/23 09:06:12;;;;;;;11.45;9.25;;;;;;;;;;4848478;29;20112;-96
2023/03/23 09:09:06;;;;;;;12.82;9.65;;;;;;;;;;4856183;29;20045;-95
2023/03/23 09:11:58;;;;;;;16.17;8.68;;;;;;;;;;4852128;29;20029;-95
2023/03/23 09:17:41;;;;;;;8.43;6.93;;;;;;;;;;4850479;29;20482;-95
2023/03/23 09:20:18;;;;;;;9.93;6.95;;;;;;;;;;4868094;29;20068;-95
2023/03/23 09:25:41;;;;;;;7.72;6.38;;;;;;;;;;5215529;23;20054;-94
2023/03/23 09:28:07;;;;;;;10.77;6.90;;;;;;;;;;4840856;29;20034;-95
2023/03/23 09:30:36;;;;;;;8.40;6.85;;;;;;;;;;4853184;29;20088;-95
2023/03/23 09:33:05;;;;;;;10.95;6.90;;;;;;;;;;4847560;29;20021;-96
2023/03/23 09:35:34;;;;;;;9.70;7.00;;;;;;;;;;4862394;29;20084;-92
2023/03/23 10:05:56;;;;;;;11.30;9.20;;;;;;;;;;4887347;27;6346025;-95
2023/03/23 10:08:29;;;;;;;11.35;7.93;;;;;;;;;;5071939;28;20073;-95
2023/03/23 10:11:24;;;;;;;10.80;7.82;;;;;;;;;;5073620;28;20035;-95
2023/03/23 10:13:59;;;;;;;10.63;7.88;;;;;;;;;;4994361;28;20038;-94
2023/03/23 10:16:49;;;;;;;8.40;7.57;;;;;;;;;;5076392;28;20473;-96
2023/03/23 10:19:27;;;;;;;13.00;8.30;;;;;;;;;;5040024;28;20036;-96
2023/03/23 10:22:09;;;;;;;;;;;;;;;;;;;;;
2023/03/23 10:25:03;;;;;;;8.45;6.78;;;;;;;;;;5095839;28;20111;-95
2023/03/23 10:27:48;;;;;;;8.13;7.32;;;;;;;;;;5074688;28;20056;-95
2023/03/23 10:30:22;;;;;;;14.73;8.10;;;;;;;;;;5076685;28;20031;-94
2023/03/23 10:33:08;;;;;;;10.07;7.78;;;;;;;;;;5077886;28;20058;-96
2023/03/23 10:35:44;;;;;;;10.50;7.80;;;;;;;;;;5076086;28;20056;-96
2023/03/23 10:38:37;;;;;;;12.63;7.20;;;;;;;;;;5074698;28;20384;-96
2023/03/23 10:47:13;;;;;;;9.73;7.90;;;;;;;;;;5092569;28;20031;-96
2023/03/23 10:49:42;;;;;;;19.23;7.97;;;;;;;;;;5071532;28;20028;-96
2023/03/23 10:52:14;;;;;;;12.00;8.95;;;;;;;;;;5059529;28;20033;-96
2023/03/23 10:54:46;;;;;;;11.50;8.60;;;;;;;;;;5053584;28;20029;-94
2023/03/23 10:57:24;;;;;;;11.73;8.27;;;;;;;;;;5069957;28;20418;-96
2023/03/23 10:59:50;;;;;;;10.35;8.23;;;;;;;;;;5086969;28;20047;-95
2023/03/23 11:02:23;;;;;;;11.65;8.98;;;;;;;;;;5073945;28;20021;-96
2023/03/23 11:05:04;;;;;;;13.00;10.68;;;;;;;;;;5076092;28;20055;-92
2023/03/23 11:07:34;;;;;;;11.18;8.43;;;;;;;;;;5085477;28;20046;-95
2023/03/23 11:10:29;;;;;;;15.25;10.13;;;;;;;;;;5077049;28;20067;-96
2023/03/23 11:13:31;;;;;;;11.52;9.23;;;;;;;;;;5042127;28;20037;-96
2023/03/23 11:16:19;;;;;;;14.05;10.70;;;;;;;;;;5069967;28;20109;-96
2023/03/23 11:18:52;;;;;;;11.85;8.77;;;;;;;;;;5062529;28;20051;-96
2023/03/23 11:21:18;;;;;;;17.83;15.93;;;;;;;;;;5063147;28;20047;-96
2023/03/23 11:23:49;;;;;;;12.70;10.38;;;;;;;;;;5064508;28;20021;-95
2023/03/23 11:26:37;;;;;;;12.82;9.50;;;;;;;;;;5063013;28;20024;-96
2023/03/23 11:29:17;;;;;;;14.50;10.27;;;;;;;;;;5063524;28;20028;-95
2023/03/23 11:31:51;;;;;;;10.65;9.52;;;;;;;;;;5061502;28;20021;-96
2023/03/23 11:34:39;;;;;;;12.18;9.15;;;;;;;;;;5059139;28;20043;-95
2023/03/23 11:43:19;;;;;;;11.38;9.50;;;;;;;;;;5053688;28;20035;-96
2023/03/23 11:46:07;;;;;;;12.27;9.80;;;;;;;;;;5059837;28;20048;-95
2023/03/23 11:48:43;;;;;;;15.15;10.45;;;;;;;;;;5058401;28;20382;-94
2023/03/23 11:51:18;;;;;;;13.55;9.63;;;;;;;;;;5059372;28;20063;-96
2023/03/23 11:54:02;;;;;;;12.40;9.35;;;;;;;;;;5061502;28;20032;-94
2023/03/23 11:57:02;;;;;;;11.13;9.40;;;;;;;;;;5082213;28;20039;-96
2023/03/23 11:59:33;;;;;;;10.90;9.43;;;;;;;;;;5057168;28;20040;-94
2023/03/23 12:02:11;;;;;;;14.30;9.90;;;;;;;;;;5042555;28;20182;-95
2023/03/23 12:04:58;;;;;;;13.85;9.95;;;;;;;;;;5043837;28;20021;-96
2023/03/23 12:07:36;;;;;;;11.68;9.20;;;;;;;;;;5025284;28;20124;-96
2023/03/23 12:10:22;;;;;;;13.18;10.05;;;;;;;;;;5035876;28;20049;-93
2023/03/23 12:19:13;;;;;;;;;;;;;;;;;;;;;
2023/03/23 12:24:11;;;;;;;12.13;9.63;;;;;;;;;;5083129;22;20049;-94
2023/03/23 12:27:14;;;;;;;;;;;;;;;;;;;;;
2023/03/23 12:30:15;;;;;;;13.15;9.65;;;;;;;;;;4990349;28;20142;-96
2023/03/23 12:33:00;;;;;;;11.88;9.50;;;;;;;;;;5010171;28;20501;-95
2023/03/23 19:15:17;;;;;;;31.95;21.80;;;;;;;;;;5413045;23;20053;-94
2023/03/23 19:17:46;;;;;;;31.25;21.00;;;;;;;;;;4864310;29;20057;-94
2023/03/23 19:20:12;;;;;;;33.65;22.65;;;;;;;;;;4867275;29;20029;-92
2023/03/23 19:22:39;;;;;;;35.40;21.90;;;;;;;;;;4866204;29;20060;-92
2023/03/23 19:25:06;;;;;;;30.02;22.17;;;;;;;;;;4867242;29;20037;-92
2023/03/23 19:27:42;;;;;;;29.67;21.55;;;;;;;;;;4875157;29;20084;-95
2023/03/23 19:30:14;;;;;;;33.13;23.38;;;;;;;;;;4860866;29;20120;-93
2023/03/23 19:32:41;;;;;;;32.63;21.27;;;;;;;;;;4866773;29;20372;-93
2023/03/23 19:35:08;;;;;;;35.28;22.23;;;;;;;;;;4871873;29;20045;-93
2023/03/23 19:37:34;;;;;;;28.83;21.33;;;;;;;;;;4865830;29;20025;-94
2023/03/23 19:40:00;;;;;;;31.67;22.35;;;;;;;;;;4866221;29;20033;-94
2023/03/23 19:42:26;;;;;;;36.20;25.30;;;;;;;;;;4866180;29;20036;-93
2023/03/23 19:44:53;;;;;;;34.85;23.88;;;;;;;;;;4866278;29;20355;-95
2023/03/23 19:47:19;;;;;;;40.10;28.90;;;;;;;;;;4866314;29;20057;-94
2023/03/23 19:49:45;;;;;;;36.85;25.80;;;;;;;;;;4866591;29;20109;-96
2023/03/23 19:52:12;;;;;;;38.08;26.05;;;;;;;;;;4866046;29;20029;-93
2023/03/23 19:54:38;;;;;;;42.70;27.35;;;;;;;;;;4865377;29;20048;-93
2023/03/23 19:57:04;;;;;;;40.78;27.75;;;;;;;;;;4865682;29;20552;-95
2023/03/23 19:59:30;;;;;;;36.90;24.85;;;;;;;;;;4865679;29;20037;-91
2023/03/23 20:01:57;;;;;;;33.63;23.20;;;;;;;;;;4865949;29;20032;-93
2023/03/23 20:04:23;;;;;;;31.85;23.55;;;;;;;;;;4865847;29;20076;-93
2023/03/23 20:06:51;;;;;;;30.00;22.70;;;;;;;;;;4865367;29;20029;-93
2023/03/23 20:09:17;;;;;;;35.55;25.58;;;;;;;;;;4865301;29;20463;-93
2023/03/23 20:11:43;;;;;;;55.10;33.72;;;;;;;;;;4865390;29;20057;-93
2023/03/23 20:14:09;;;;;;;49.75;32.88;;;;;;;;;;4864834;29;20028;-94
2023/03/23 20:16:35;;;;;;;47.28;33.13;;;;;;;;;;4875643;29;20365;-94
2023/03/23 20:19:02;;;;;;;46.35;32.30;;;;;;;;;;4883776;29;20408;-94
2023/03/23 20:21:28;;;;;;;41.92;29.00;;;;;;;;;;4883901;29;20028;-93
2023/03/23 20:23:55;;;;;;;38.28;28.77;;;;;;;;;;4884107;29;20044;-94
2023/03/23 20:26:27;;;;;;;40.22;28.52;;;;;;;;;;4880716;29;20073;-94
2023/03/23 20:28:53;;;;;;;40.10;27.08;;;;;;;;;;4862724;29;20033;-92
2023/03/23 20:31:21;;;;;;;37.95;27.27;;;;;;;;;;4849215;29;20066;-93
2023/03/23 20:33:48;;;;;;;38.40;27.40;;;;;;;;;;4846420;29;20472;-93
2023/03/23 20:36:18;;;;;;;40.67;27.13;;;;;;;;;;4846197;29;20044;-94
2023/03/23 20:39:04;;;;;;;41.33;29.15;;;;;;;;;;4846686;29;20030;-96
2023/03/23 20:41:30;;;;;;;49.25;30.20;;;;;;;;;;4846129;29;20036;-96
2023/03/23 20:43:56;;;;;;;43.72;30.77;;;;;;;;;;4848810;29;20082;-93
2023/03/23 20:46:47;;;;;;;46.05;31.15;;;;;;;;;;4848982;29;20030;-96
2023/03/23 20:49:14;;;;;;;64.88;41.00;;;;;;;;;;4845936;29;20042;-96
2023/03/23 20:51:41;;;;;;;49.10;34.92;;;;;;;;;;4846722;29;20183;-93
2023/03/23 20:54:08;;;;;;;62.33;39.03;;;;;;;;;;4848946;29;20045;-94
2023/03/23 20:56:35;;;;;;;52.70;36.47;;;;;;;;;;4848895;29;20029;-94
2023/03/23 20:59:01;;;;;;;50.97;35.72;;;;;;;;;;4847853;29;20029;-94
2023/03/23 21:01:27;;;;;;;54.72;35.80;;;;;;;;;;4845964;29;20518;-93
2023/03/23 21:03:55;;;;;;;52.58;36.00;;;;;;;;;;4846688;29;20030;-94
2023/03/23 21:06:22;;;;;;;59.97;38.47;;;;;;;;;;4845586;29;20029;-92
2023/03/23 21:08:55;;;;;;;52.00;36.72;;;;;;;;;;4846330;29;20037;-94
2023/03/23 21:11:23;;;;;;;43.72;31.38;;;;;;;;;;4849335;29;20068;-93
2023/03/23 21:13:49;;;;;;;45.97;33.85;;;;;;;;;;4881517;29;20071;-95
2023/03/23 21:16:17;;;;;;;48.13;35.10;;;;;;;;;;4880461;29;20059;-94
2023/03/23 21:18:44;;;;;;;47.30;34.00;;;;;;;;;;4902029;29;20025;-96
2023/03/23 21:21:13;;;;;;;53.72;35.15;;;;;;;;;;4910594;29;20044;-96
2023/03/23 21:23:45;;;;;;;52.85;35.58;;;;;;;;;;4891129;29;20032;-96
2023/03/23 21:26:12;;;;;;;62.92;42.83;;;;;;;;;;4903267;29;20043;-95
2023/03/23 21:28:38;;;;;;;56.90;37.55;;;;;;;;;;4886561;29;20032;-95
2023/03/23 21:31:06;;;;;;;53.95;37.55;;;;;;;;;;4883774;29;20382;-95
2023/03/23 21:33:32;;;;;;;54.90;37.22;;;;;;;;;;4883383;29;20099;-94
2023/03/23 21:35:59;;;;;;;51.70;37.25;;;;;;;;;;4882556;29;20044;-95
2023/03/23 21:38:26;;;;;;;48.45;35.80;;;;;;;;;;4882775;29;20028;-95
2023/03/23 21:40:53;;;;;;;49.95;36.22;;;;;;;;;;4882023;29;20060;-95
2023/03/23 21:43:26;;;;;;;103.88;63.53;;;;;;;;;;4881199;29;20025;-96
2023/03/23 21:45:55;;;;;;;70.82;45.80;;;;;;;;;;4882241;29;20486;-95
2023/03/23 21:48:21;;;;;;;60.67;41.45;;;;;;;;;;4882730;29;20032;-94
2023/03/23 21:50:48;;;;;;;50.65;33.17;;;;;;;;;;4882778;29;20028;-94
2023/03/23 21:53:18;;;;;;;43.85;32.03;;;;;;;;;;4899743;29;20067;-95
2023/03/23 21:55:50;;;;;;;44.88;33.22;;;;;;;;;;4883211;29;20202;-96
2023/03/23 21:58:17;;;;;;;44.58;32.33;;;;;;;;;;4882709;29;20032;-95
2023/03/23 22:00:45;;;;;;;41.63;30.20;;;;;;;;;;4882595;29;20180;-95
2023/03/23 22:03:14;;;;;;;40.72;31.10;;;;;;;;;;4882912;29;20032;-94
2023/03/23 22:05:41;;;;;;;47.55;32.15;;;;;;;;;;4882680;29;20036;-96
2023/03/23 22:08:08;;;;;;;42.25;33.53;;;;;;;;;;4882546;29;20036;-94
2023/03/23 22:10:35;;;;;;;43.50;33.45;;;;;;;;;;4882950;29;20024;-94
2023/03/23 22:13:01;;;;;;;45.00;34.03;;;;;;;;;;4882684;29;20043;-96
2023/03/23 22:15:28;;;;;;;46.70;33.85;;;;;;;;;;4882407;29;20055;-96
2023/03/23 22:17:54;;;;;;;44.38;31.95;;;;;;;;;;4882228;29;20031;-95
2023/03/23 22:20:21;;;;;;;42.13;32.47;;;;;;;;;;4882919;29;20043;-96
2023/03/23 22:22:47;;;;;;;47.72;33.67;;;;;;;;;;4882702;29;20033;-94
2023/03/23 22:25:13;;;;;;;48.28;32.55;;;;;;;;;;4882418;29;20077;-94
2023/03/23 22:27:41;;;;;;;44.13;32.85;;;;;;;;;;4882200;29;20087;-95
2023/03/23 22:30:07;;;;;;;47.13;34.78;;;;;;;;;;4882699;29;20072;-96
2023/03/23 22:32:34;;;;;;;54.10;35.20;;;;;;;;;;4883773;29;20056;-95
2023/03/23 22:35:00;;;;;;;53.75;38.47;;;;;;;;;;4881481;29;20040;-93